sensor_id;sensor_type;location;lat;lon;timestamp;pressure;altitude;pressure_sealevel;temperature;humidity
82033;BME280;71595;52.180;4.512;2023-09-19T00:01:28;100745.31;;;16.32;56.45
82033;BME280;71595;52.180;4.512;2023-09-19T00:03:55;100752.06;;;16.31;56.84
82033;BME280;71595;52.180;4.512;2023-09-19T00:06:22;100744.88;;;16.27;56.18
82033;BME280;71595;52.180;4.512;2023-09-19T00:08:52;100753.25;;;16.30;56.93
82033;BME280;71595;52.180;4.512;2023-09-19T00:11:18;100766.06;;;16.39;57.02
82033;BME280;71595;52.180;4.512;2023-09-19T00:13:55;100768.44;;;16.37;56.16
82033;BME280;71595;52.180;4.512;2023-09-19T00:16:25;100767.25;;;16.38;56.45
82033;BME280;71595;52.180;4.512;2023-09-19T00:18:51;100765.22;;;16.34;56.65
82033;BME280;71595;52.180;4.512;2023-09-19T00:21:17;100770.00;;;16.34;57.30
82033;BME280;71595;52.180;4.512;2023-09-19T00:23:45;100765.19;;;16.31;57.77
82033;BME280;71595;52.180;4.512;2023-09-19T00:26:11;100765.19;;;16.31;57.99
82033;BME280;71595;52.180;4.512;2023-09-19T00:28:36;100767.59;;;16.32;58.00
82033;BME280;71595;52.180;4.512;2023-09-19T00:31:02;100769.97;;;16.30;57.86
82033;BME280;71595;52.180;4.512;2023-09-19T00:33:28;100775.56;;;16.34;57.97
82033;BME280;71595;52.180;4.512;2023-09-19T00:35:56;100767.56;;;16.29;58.45
82033;BME280;71595;52.180;4.512;2023-09-19T00:38:23;100778.31;;;16.30;58.87
82033;BME280;71595;52.180;4.512;2023-09-19T00:40:52;100770.72;;;16.27;58.03
82033;BME280;71595;52.180;4.512;2023-09-19T00:43:20;100771.59;;;16.31;58.38
82033;BME280;71595;52.180;4.512;2023-09-19T00:45:48;100769.22;;;16.33;58.55
82033;BME280;71595;52.180;4.512;2023-09-19T00:48:15;100763.63;;;16.33;58.62
82033;BME280;71595;52.180;4.512;2023-09-19T00:50:45;100765.22;;;16.34;59.10
82033;BME280;71595;52.180;4.512;2023-09-19T00:53:13;100777.59;;;16.37;59.43
82033;BME280;71595;52.180;4.512;2023-09-19T00:55:39;100774.09;;;16.44;59.30
82033;BME280;71595;52.180;4.512;2023-09-19T00:58:09;100779.66;;;16.44;59.60
82033;BME280;71595;52.180;4.512;2023-09-19T01:00:35;100777.25;;;16.42;60.37
82033;BME280;71595;52.180;4.512;2023-09-19T01:03:01;100775.66;;;16.41;60.28
82033;BME280;71595;52.180;4.512;2023-09-19T01:05:27;100787.25;;;16.47;60.33
82033;BME280;71595;52.180;4.512;2023-09-19T01:07:53;100774.09;;;16.44;60.69
82033;BME280;71595;52.180;4.512;2023-09-19T01:10:19;100782.88;;;16.46;60.84
82033;BME280;71595;52.180;4.512;2023-09-19T01:12:56;100778.13;;;16.50;60.93
82033;BME280;71595;52.180;4.512;2023-09-19T01:18:26;100779.06;;;16.61;60.40
82033;BME280;71595;52.180;4.512;2023-09-19T01:29:44;100789.72;;;16.52;60.20
82033;BME280;71595;52.180;4.512;2023-09-19T01:32:14;100791.63;;;16.44;60.20
82033;BME280;71595;52.180;4.512;2023-09-19T01:34:44;100788.84;;;16.44;61.18
82033;BME280;71595;52.180;4.512;2023-09-19T01:37:14;100786.84;;;16.45;61.48
82033;BME280;71595;52.180;4.512;2023-09-19T01:39:44;100787.59;;;16.42;62.09
82033;BME280;71595;52.180;4.512;2023-09-19T01:47:35;100787.69;;;16.49;60.24
82033;BME280;71595;52.180;4.512;2023-09-19T01:53:25;100792.44;;;16.48;60.49
82033;BME280;71595;52.180;4.512;2023-09-19T01:55:54;100799.59;;;16.46;61.15
82033;BME280;71595;52.180;4.512;2023-09-19T01:58:26;100786.84;;;16.45;63.24
82033;BME280;71595;52.180;4.512;2023-09-19T02:00:53;100790.81;;;16.44;65.20
82033;BME280;71595;52.180;4.512;2023-09-19T02:03:21;100782.75;;;16.35;65.66
82033;BME280;71595;52.180;4.512;2023-09-19T02:05:50;100785.09;;;16.33;65.48
82033;BME280;71595;52.180;4.512;2023-09-19T02:08:20;100785.56;;;16.35;64.27
82033;BME280;71595;52.180;4.512;2023-09-19T02:10:48;100789.50;;;16.34;63.59
82033;BME280;71595;52.180;4.512;2023-09-19T02:13:18;100793.88;;;16.31;64.02
82033;BME280;71595;52.180;4.512;2023-09-19T02:15:44;100796.31;;;16.37;62.76
82033;BME280;71595;52.180;4.512;2023-09-19T02:18:10;100795.47;;;16.32;62.15
82033;BME280;71595;52.180;4.512;2023-09-19T02:20:37;100804.19;;;16.31;62.68
82033;BME280;71595;52.180;4.512;2023-09-19T02:23:03;100799.00;;;16.29;62.61
82033;BME280;71595;52.180;4.512;2023-09-19T02:25:28;100795.34;;;16.22;62.69
82033;BME280;71595;52.180;4.512;2023-09-19T02:27:54;100803.31;;;16.23;62.05
82033;BME280;71595;52.180;4.512;2023-09-19T02:30:20;100802.13;;;16.24;62.88
82033;BME280;71595;52.180;4.512;2023-09-19T02:32:48;100805.69;;;16.21;62.77
82033;BME280;71595;52.180;4.512;2023-09-19T02:35:14;100808.88;;;16.23;62.36
82033;BME280;71595;52.180;4.512;2023-09-19T02:37:45;100807.38;;;16.29;61.58
82033;BME280;71595;52.180;4.512;2023-09-19T02:40:10;100803.41;;;16.30;62.12
82033;BME280;71595;52.180;4.512;2023-09-19T02:42:52;100807.47;;;16.37;60.90
82033;BME280;71595;52.180;4.512;2023-09-19T02:45:18;100798.97;;;16.26;61.69
82033;BME280;71595;52.180;4.512;2023-09-19T02:47:45;100802.63;;;16.30;60.86
82033;BME280;71595;52.180;4.512;2023-09-19T02:50:11;100799.75;;;16.26;61.33
82033;BME280;71595;52.180;4.512;2023-09-19T02:52:37;100796.16;;;16.22;62.00
82033;BME280;71595;52.180;4.512;2023-09-19T02:55:03;100795.34;;;16.22;61.69
82033;BME280;71595;52.180;4.512;2023-09-19T02:57:30;100794.56;;;16.25;62.20
82033;BME280;71595;52.180;4.512;2023-09-19T03:00:00;100800.63;;;16.30;61.76
82033;BME280;71595;52.180;4.512;2023-09-19T03:02:28;100797.03;;;16.30;60.84
82033;BME280;71595;52.180;4.512;2023-09-19T03:04:53;100801.78;;;16.29;60.61
82033;BME280;71595;52.180;4.512;2023-09-19T03:07:19;100795.47;;;16.32;59.72
82033;BME280;71595;52.180;4.512;2023-09-19T03:09:44;100807.13;;;16.42;59.28
82033;BME280;71595;52.180;4.512;2023-09-19T03:12:10;100795.63;;;16.47;59.52
82033;BME280;71595;52.180;4.512;2023-09-19T03:14:36;100792.44;;;16.48;60.16
82033;BME280;71595;52.180;4.512;2023-09-19T03:17:01;100787.59;;;16.42;61.01
82033;BME280;71595;52.180;4.512;2023-09-19T03:19:30;100786.75;;;16.38;60.87
82033;BME280;71595;52.180;4.512;2023-09-19T03:21:58;100786.00;;;16.41;60.88
82033;BME280;71595;52.180;4.512;2023-09-19T03:24:24;100784.44;;;16.43;61.20
82033;BME280;71595;52.180;4.512;2023-09-19T03:26:49;100782.03;;;16.42;61.55
82033;BME280;71595;52.180;4.512;2023-09-19T03:29:15;100779.59;;;16.37;61.80
82033;BME280;71595;52.180;4.512;2023-09-19T03:31:42;100791.53;;;16.37;62.06
82033;BME280;71595;52.180;4.512;2023-09-19T03:34:07;100808.22;;;16.33;62.21
82033;BME280;71595;52.180;4.512;2023-09-19T03:36:34;100805.09;;;16.39;61.24
82033;BME280;71595;52.180;4.512;2023-09-19T03:39:00;100815.38;;;16.34;61.49
82033;BME280;71595;52.180;4.512;2023-09-19T03:41:40;100814.97;;;16.32;61.61
82033;BME280;71595;52.180;4.512;2023-09-19T03:44:06;100807.41;;;16.33;61.46
82033;BME280;71595;52.180;4.512;2023-09-19T03:46:31;100815.34;;;16.31;61.85
82033;BME280;71595;52.180;4.512;2023-09-19T03:48:57;100810.63;;;16.35;61.80
82033;BME280;71595;52.180;4.512;2023-09-19T03:51:22;100812.59;;;16.34;62.02
82033;BME280;71595;52.180;4.512;2023-09-19T03:53:48;100821.03;;;16.38;61.50
82033;BME280;71595;52.180;4.512;2023-09-19T03:56:15;100811.00;;;16.33;61.85
82033;BME280;71595;52.180;4.512;2023-09-19T03:58:42;100809.88;;;16.38;61.39
82033;BME280;71595;52.180;4.512;2023-09-19T04:01:07;100811.00;;;16.33;61.16
82033;BME280;71595;52.180;4.512;2023-09-19T04:03:33;100830.47;;;16.30;61.44
82033;BME280;71595;52.180;4.512;2023-09-19T04:06:16;100830.09;;;16.31;60.34
82033;BME280;71595;52.180;4.512;2023-09-19T04:08:42;100824.09;;;16.29;59.46
82033;BME280;71595;52.180;4.512;2023-09-19T04:11:08;100825.31;;;16.32;59.40
82033;BME280;71595;52.180;4.512;2023-09-19T04:13:34;100828.09;;;16.32;58.79
82033;BME280;71595;52.180;4.512;2023-09-19T04:15:59;100826.50;;;16.31;59.43
82033;BME280;71595;52.180;4.512;2023-09-19T04:18:25;100819.34;;;16.30;58.79
82033;BME280;71595;52.180;4.512;2023-09-19T04:20:51;100828.88;;;16.29;59.52
82033;BME280;71595;52.180;4.512;2023-09-19T04:23:16;100842.84;;;16.32;60.00
82033;BME280;71595;52.180;4.512;2023-09-19T04:25:42;100834.09;;;16.34;60.58
82033;BME280;71595;52.180;4.512;2023-09-19T04:28:08;100843.25;;;16.34;60.70
82033;BME280;71595;52.180;4.512;2023-09-19T04:30:36;100842.84;;;16.32;61.47
82033;BME280;71595;52.180;4.512;2023-09-19T04:33:02;100843.63;;;16.33;61.08
82033;BME280;71595;52.180;4.512;2023-09-19T04:35:29;100839.22;;;16.28;60.95
82033;BME280;71595;52.180;4.512;2023-09-19T04:37:57;100837.66;;;16.34;60.48
82033;BME280;71595;52.180;4.512;2023-09-19T04:40:22;100843.69;;;16.37;60.16
82033;BME280;71595;52.180;4.512;2023-09-19T04:42:56;100843.31;;;16.38;59.65
82033;BME280;71595;52.180;4.512;2023-09-19T04:45:25;100853.56;;;16.30;60.59
82033;BME280;71595;52.180;4.512;2023-09-19T04:47:51;100848.00;;;16.30;60.24
82033;BME280;71595;52.180;4.512;2023-09-19T04:50:17;100848.00;;;16.30;60.07
82033;BME280;71595;52.180;4.512;2023-09-19T04:52:43;100846.34;;;16.26;60.23
82033;BME280;71595;52.180;4.512;2023-09-19T04:55:13;100853.47;;;16.23;60.60
82033;BME280;71595;52.180;4.512;2023-09-19T04:57:50;100840.72;;;16.22;60.30
82033;BME280;71595;52.180;4.512;2023-09-19T05:00:27;100854.22;;;16.20;60.91
82033;BME280;71595;52.180;4.512;2023-09-19T05:02:56;100851.19;;;16.32;59.98
82033;BME280;71595;52.180;4.512;2023-09-19T05:05:22;100839.59;;;16.27;60.70
82033;BME280;71595;52.180;4.512;2023-09-19T05:07:49;100839.97;;;16.25;60.41
82033;BME280;71595;52.180;4.512;2023-09-19T05:10:15;100845.56;;;16.25;61.05
82033;BME280;71595;52.180;4.512;2023-09-19T05:12:43;100847.09;;;16.23;61.23
82033;BME280;71595;52.180;4.512;2023-09-19T05:15:15;100836.44;;;16.28;60.51
82033;BME280;71595;52.180;4.512;2023-09-19T05:17:42;100841.66;;;16.33;60.61
82033;BME280;71595;52.180;4.512;2023-09-19T05:20:12;100837.66;;;16.34;60.05
82033;BME280;71595;52.180;4.512;2023-09-19T05:22:50;100842.38;;;16.27;60.48
82033;BME280;71595;52.180;4.512;2023-09-19T05:25:15;100845.47;;;16.22;61.16
82033;BME280;71595;52.180;4.512;2023-09-19T05:27:43;100843.06;;;16.20;61.35
82033;BME280;71595;52.180;4.512;2023-09-19T05:30:09;100846.22;;;16.18;61.53
82033;BME280;71595;52.180;4.512;2023-09-19T05:32:34;100839.75;;;16.11;61.95
82033;BME280;71595;52.180;4.512;2023-09-19T05:35:00;100849.31;;;16.10;62.25
82033;BME280;71595;52.180;4.512;2023-09-19T05:37:25;100846.09;;;16.08;62.19
82033;BME280;71595;52.180;4.512;2023-09-19T05:39:51;100848.50;;;16.09;62.18
82033;BME280;71595;52.180;4.512;2023-09-19T05:42:18;100852.47;;;16.08;62.41
82033;BME280;71595;52.180;4.512;2023-09-19T05:44:43;100850.91;;;16.11;61.84
82033;BME280;71595;52.180;4.512;2023-09-19T05:47:08;100861.22;;;16.07;62.63
82033;BME280;71595;52.180;4.512;2023-09-19T05:49:37;100863.56;;;16.05;62.76
82033;BME280;71595;52.180;4.512;2023-09-19T05:52:06;100863.56;;;16.05;63.08
82033;BME280;71595;52.180;4.512;2023-09-19T05:54:32;100860.41;;;16.06;63.39
82033;BME280;71595;52.180;4.512;2023-09-19T05:57:00;100852.16;;;16.13;62.75
82033;BME280;71595;52.180;4.512;2023-09-19T05:59:25;100852.94;;;16.14;63.71
82033;BME280;71595;52.180;4.512;2023-09-19T06:01:51;100851.78;;;16.15;63.21
82033;BME280;71595;52.180;4.512;2023-09-19T06:04:17;100862.19;;;16.22;63.26
82033;BME280;71595;52.180;4.512;2023-09-19T06:06:44;100848.38;;;16.29;63.16
82033;BME280;71595;52.180;4.512;2023-09-19T06:09:09;100860.75;;;16.31;63.18
82033;BME280;71595;52.180;4.512;2023-09-19T06:11:35;100859.13;;;16.30;63.68
82033;BME280;71595;52.180;4.512;2023-09-19T06:14:02;100862.72;;;16.31;63.86
82033;BME280;71595;52.180;4.512;2023-09-19T06:19:49;100859.41;;;16.52;60.36
82033;BME280;71595;52.180;4.512;2023-09-19T06:22:22;100862.50;;;16.47;61.18
82033;BME280;71595;52.180;4.512;2023-09-19T06:24:55;100873.66;;;16.47;60.72
82033;BME280;71595;52.180;4.512;2023-09-19T06:27:21;100868.84;;;16.44;61.34
82033;BME280;71595;52.180;4.512;2023-09-19T06:29:47;100870.88;;;16.47;61.28
82033;BME280;71595;52.180;4.512;2023-09-19T06:32:12;100881.66;;;16.48;60.89
82033;BME280;71595;52.180;4.512;2023-09-19T06:34:38;100882.47;;;16.49;60.19
82033;BME280;71595;52.180;4.512;2023-09-19T06:37:04;100870.47;;;16.45;60.92
82033;BME280;71595;52.180;4.512;2023-09-19T06:39:31;100877.22;;;16.44;59.93
82033;BME280;71595;52.180;4.512;2023-09-19T06:41:57;100884.34;;;16.41;59.80
82033;BME280;71595;52.180;4.512;2023-09-19T06:44:23;100879.22;;;16.47;59.75
82033;BME280;71595;52.180;4.512;2023-09-19T06:46:50;100876.88;;;16.49;59.62
82033;BME280;71595;52.180;4.512;2023-09-19T06:49:17;100882.13;;;16.54;59.50
82033;BME280;71595;52.180;4.512;2023-09-19T06:51:42;100877.41;;;16.58;58.95
82033;BME280;71595;52.180;4.512;2023-09-19T06:54:09;100885.31;;;16.56;59.94
82033;BME280;71595;52.180;4.512;2023-09-19T06:56:34;100891.34;;;16.58;59.53
82033;BME280;71595;52.180;4.512;2023-09-19T06:59:00;100891.72;;;16.57;60.27
82033;BME280;71595;52.180;4.512;2023-09-19T07:01:27;100885.31;;;16.56;60.27
82033;BME280;71595;52.180;4.512;2023-09-19T07:03:52;100883.38;;;16.60;60.69
82033;BME280;71595;52.180;4.512;2023-09-19T07:06:18;100884.94;;;16.58;61.13
82033;BME280;71595;52.180;4.512;2023-09-19T07:08:43;100878.56;;;16.57;61.16
82033;BME280;71595;52.180;4.512;2023-09-19T07:11:10;100885.75;;;16.58;61.23
82033;BME280;71595;52.180;4.512;2023-09-19T07:13:37;100893.81;;;16.67;60.17
82033;BME280;71595;52.180;4.512;2023-09-19T07:16:03;100900.28;;;16.75;59.63
82033;BME280;71595;52.180;4.512;2023-09-19T07:18:29;100881.16;;;16.73;59.62
82033;BME280;71595;52.180;4.512;2023-09-19T07:20:57;100888.72;;;16.73;59.12
82033;BME280;71595;52.180;4.512;2023-09-19T07:23:26;100885.25;;;16.83;57.55
82033;BME280;71595;52.180;4.512;2023-09-19T07:25:52;100888.47;;;16.85;57.50
82033;BME280;71595;52.180;4.512;2023-09-19T07:28:22;100891.16;;;16.78;59.31
82033;BME280;71595;52.180;4.512;2023-09-19T07:30:47;100895.66;;;16.86;58.80
82033;BME280;71595;52.180;4.512;2023-09-19T07:33:13;100902.50;;;16.92;60.32
82033;BME280;71595;52.180;4.512;2023-09-19T07:35:39;100909.16;;;16.84;63.00
82033;BME280;71595;52.180;4.512;2023-09-19T07:38:08;100902.75;;;16.80;65.48
82033;BME280;71595;52.180;4.512;2023-09-19T07:40:36;100906.72;;;16.79;66.44
82033;BME280;71595;52.180;4.512;2023-09-19T07:43:01;100904.69;;;16.76;66.68
82033;BME280;71595;52.180;4.512;2023-09-19T07:45:28;100899.75;;;16.62;67.56
82033;BME280;71595;52.180;4.512;2023-09-19T07:47:55;100900.13;;;16.60;68.33
82033;BME280;71595;52.180;4.512;2023-09-19T07:50:20;100904.91;;;16.60;68.78
82033;BME280;71595;52.180;4.512;2023-09-19T07:52:47;100908.13;;;16.65;69.25
82033;BME280;71595;52.180;4.512;2023-09-19T07:55:13;100910.50;;;16.63;69.38
82033;BME280;71595;52.180;4.512;2023-09-19T07:57:41;100906.59;;;16.68;69.87
82033;BME280;71595;52.180;4.512;2023-09-19T08:00:08;100897.81;;;16.66;70.00
82033;BME280;71595;52.180;4.512;2023-09-19T08:02:38;100894.28;;;16.73;70.24
82033;BME280;71595;52.180;4.512;2023-09-19T08:05:08;100886.03;;;16.80;70.61
82033;BME280;71595;52.180;4.512;2023-09-19T08:07:52;100879.25;;;16.81;69.82
82033;BME280;71595;52.180;4.512;2023-09-19T08:10:19;100879.69;;;16.83;70.09
82033;BME280;71595;52.180;4.512;2023-09-19T08:12:45;100869.28;;;16.80;69.79
82033;BME280;71595;52.180;4.512;2023-09-19T08:15:15;100874.88;;;16.80;69.41
82033;BME280;71595;52.180;4.512;2023-09-19T08:17:41;100870.06;;;16.80;69.59
82033;BME280;71595;52.180;4.512;2023-09-19T08:20:08;100872.50;;;16.82;69.29
82033;BME280;71595;52.180;4.512;2023-09-19T08:22:46;100877.66;;;16.80;69.54
82033;BME280;71595;52.180;4.512;2023-09-19T08:25:13;100876.50;;;16.84;69.16
82033;BME280;71595;52.180;4.512;2023-09-19T08:27:38;100866.88;;;16.78;69.31
82033;BME280;71595;52.180;4.512;2023-09-19T08:30:04;100882.03;;;16.81;69.61
82033;BME280;71595;52.180;4.512;2023-09-19T08:32:31;100878.81;;;16.79;69.53
82033;BME280;71595;52.180;4.512;2023-09-19T08:34:57;100883.16;;;16.76;69.65
82033;BME280;71595;52.180;4.512;2023-09-19T08:37:22;100883.66;;;16.82;69.00
82033;BME280;71595;52.180;4.512;2023-09-19T08:39:47;100889.22;;;16.82;69.31
82033;BME280;71595;52.180;4.512;2023-09-19T08:42:13;100892.91;;;16.89;68.41
82033;BME280;71595;52.180;4.512;2023-09-19T08:44:42;100883.03;;;16.96;68.63
82033;BME280;71595;52.180;4.512;2023-09-19T08:47:15;100890.56;;;16.95;68.98
82033;BME280;71595;52.180;4.512;2023-09-19T08:49:51;100878.59;;;16.91;69.31
82033;BME280;71595;52.180;4.512;2023-09-19T08:52:37;100889.59;;;16.80;67.82
82033;BME280;71595;52.180;4.512;2023-09-19T08:55:31;100892.69;;;16.71;68.76
82033;BME280;71595;52.180;4.512;2023-09-19T08:58:03;100898.22;;;16.68;69.42
82033;BME280;71595;52.180;4.512;2023-09-19T09:00:30;100906.72;;;16.79;68.79
82033;BME280;71595;52.180;4.512;2023-09-19T09:02:57;100892.25;;;16.69;69.33
82033;BME280;71595;52.180;4.512;2023-09-19T09:05:24;100885.84;;;16.65;69.31
82033;BME280;71595;52.180;4.512;2023-09-19T09:07:52;100877.81;;;16.60;71.06
82033;BME280;71595;52.180;4.512;2023-09-19T09:10:20;100886.94;;;16.57;72.04
82033;BME280;71595;52.180;4.512;2023-09-19T09:12:52;100887.78;;;16.61;71.75
82033;BME280;71595;52.180;4.512;2023-09-19T09:15:24;100889.81;;;16.64;71.65
82033;BME280;71595;52.180;4.512;2023-09-19T09:17:50;100872.75;;;16.69;71.63
82033;BME280;71595;52.180;4.512;2023-09-19T09:20:19;100863.63;;;16.73;72.04
82033;BME280;71595;52.180;4.512;2023-09-19T09:22:55;100864.88;;;16.79;71.59
82033;BME280;71595;52.180;4.512;2023-09-19T09:25:22;100879.75;;;16.86;70.44
82033;BME280;71595;52.180;4.512;2023-09-19T09:28:01;100875.81;;;16.91;70.29
82033;BME280;71595;52.180;4.512;2023-09-19T09:30:34;100874.34;;;17.04;68.98
82033;BME280;71595;52.180;4.512;2023-09-19T09:33:12;100871.97;;;17.06;68.68
82033;BME280;71595;52.180;4.512;2023-09-19T09:35:56;100855.25;;;17.10;68.69
82033;BME280;71595;52.180;4.512;2023-09-19T09:38:24;100857.75;;;17.19;69.12
82033;BME280;71595;52.180;4.512;2023-09-19T09:40:58;100857.03;;;17.29;68.66
82033;BME280;71595;52.180;4.512;2023-09-19T09:43:28;100860.69;;;17.40;68.62
82033;BME280;71595;52.180;4.512;2023-09-19T09:46:11;100854.44;;;17.54;67.74
82033;BME280;71595;52.180;4.512;2023-09-19T09:51:39;100846.91;;;17.58;68.56
82033;BME280;71595;52.180;4.512;2023-09-19T09:54:17;100839.75;;;17.61;67.55
82033;BME280;71595;52.180;4.512;2023-09-19T09:59:22;100849.31;;;17.60;67.11
82033;BME280;71595;52.180;4.512;2023-09-19T10:01:49;100848.53;;;17.67;67.15
82033;BME280;71595;52.180;4.512;2023-09-19T10:04:35;100841.38;;;17.69;66.76
82033;BME280;71595;52.180;4.512;2023-09-19T10:07:33;100844.59;;;17.71;66.77
82033;BME280;71595;52.180;4.512;2023-09-19T10:10:02;100840.59;;;17.69;66.74
82033;BME280;71595;52.180;4.512;2023-09-19T10:12:47;100838.16;;;17.64;66.64
82033;BME280;71595;52.180;4.512;2023-09-19T10:15:15;100840.53;;;17.58;66.91
82033;BME280;71595;52.180;4.512;2023-09-19T10:17:44;100830.13;;;17.55;67.61
82033;BME280;71595;52.180;4.512;2023-09-19T10:20:15;100829.31;;;17.54;67.27
82033;BME280;71595;52.180;4.512;2023-09-19T10:23:01;100825.72;;;17.54;66.93
82033;BME280;71595;52.180;4.512;2023-09-19T10:25:29;100815.06;;;17.70;66.56
82033;BME280;71595;52.180;4.512;2023-09-19T10:27:57;100823.06;;;17.75;66.62
82033;BME280;71595;52.180;4.512;2023-09-19T10:30:24;100816.78;;;17.86;66.41
82033;BME280;71595;52.180;4.512;2023-09-19T10:33:03;100829.59;;;17.90;65.93
82033;BME280;71595;52.180;4.512;2023-09-19T10:35:32;100802.91;;;18.00;65.76
82033;BME280;71595;52.180;4.512;2023-09-19T10:38:01;100824.03;;;18.01;65.94
82033;BME280;71595;52.180;4.512;2023-09-19T10:40:28;100804.47;;;17.94;66.00
82033;BME280;71595;52.180;4.512;2023-09-19T10:43:03;100815.56;;;17.87;66.46
82033;BME280;71595;52.180;4.512;2023-09-19T10:45:31;100800.78;;;17.83;67.00
82033;BME280;71595;52.180;4.512;2023-09-19T10:47:57;100807.56;;;17.82;66.63
82033;BME280;71595;52.180;4.512;2023-09-19T10:50:23;100815.91;;;17.78;66.41
82033;BME280;71595;52.180;4.512;2023-09-19T10:52:49;100820.69;;;17.77;67.33
82033;BME280;71595;52.180;4.512;2023-09-19T10:55:17;100817.94;;;17.85;66.88
82033;BME280;71595;52.180;4.512;2023-09-19T10:57:44;100795.66;;;17.92;66.93
82033;BME280;71595;52.180;4.512;2023-09-19T11:00:12;100786.53;;;17.99;66.87
82033;BME280;71595;52.180;4.512;2023-09-19T11:06:07;100781.00;;;18.09;66.40
82033;BME280;71595;52.180;4.512;2023-09-19T11:09:00;100789.78;;;18.11;66.20
82033;BME280;71595;52.180;4.512;2023-09-19T11:11:47;100795.34;;;18.08;66.33
82033;BME280;71595;52.180;4.512;2023-09-19T11:30:49;100779.31;;;17.94;67.66
82033;BME280;71595;52.180;4.512;2023-09-19T11:33:25;100797.66;;;17.91;68.15
82033;BME280;71595;52.180;4.512;2023-09-19T11:38:57;100783.59;;;17.81;68.76
82033;BME280;71595;52.180;4.512;2023-09-19T11:49:15;100783.19;;;17.78;69.56
82033;BME280;71595;52.180;4.512;2023-09-19T11:51:45;100776.84;;;17.82;69.52
82033;BME280;71595;52.180;4.512;2023-09-19T11:54:13;100799.97;;;17.78;69.29
82033;BME280;71595;52.180;4.512;2023-09-19T11:56:54;100790.41;;;17.79;69.24
82033;BME280;71595;52.180;4.512;2023-09-19T11:59:24;100800.34;;;17.81;70.19
82033;BME280;71595;52.180;4.512;2023-09-19T12:02:01;100803.53;;;17.79;71.53
82033;BME280;71595;52.180;4.512;2023-09-19T12:04:42;100791.13;;;17.69;74.05
82033;BME280;71595;52.180;4.512;2023-09-19T12:07:13;100793.00;;;17.51;75.75
82033;BME280;71595;52.180;4.512;2023-09-19T12:09:46;100804.44;;;17.35;76.11
82033;BME280;71595;52.180;4.512;2023-09-19T12:12:28;100790.41;;;17.24;77.65
82033;BME280;71595;52.180;4.512;2023-09-19T12:14:56;100795.06;;;17.09;78.67
82033;BME280;71595;52.180;4.512;2023-09-19T12:17:24;100794.75;;;17.18;78.83
82033;BME280;71595;52.180;4.512;2023-09-19T12:20:01;100786.84;;;17.23;78.62
82033;BME280;71595;52.180;4.512;2023-09-19T12:22:41;100782.53;;;17.37;77.10
82033;BME280;71595;52.180;4.512;2023-09-19T12:25:09;100782.97;;;17.42;76.29
82033;BME280;71595;52.180;4.512;2023-09-19T12:27:46;100785.47;;;17.55;75.92
82033;BME280;71595;52.180;4.512;2023-09-19T12:30:12;100793.97;;;17.76;74.50
82033;BME280;71595;52.180;4.512;2023-09-19T12:32:43;100786.44;;;17.84;73.10
82033;BME280;71595;52.180;4.512;2023-09-19T12:35:28;100782.13;;;17.94;72.70
82033;BME280;71595;52.180;4.512;2023-09-19T12:37:55;100780.56;;;18.04;71.18
82033;BME280;71595;52.180;4.512;2023-09-19T12:40:22;100771.44;;;18.18;70.97
82033;BME280;71595;52.180;4.512;2023-09-19T12:42:53;100762.25;;;18.21;70.93
82033;BME280;71595;52.180;4.512;2023-09-19T12:45:20;100769.84;;;18.24;71.24
82033;BME280;71595;52.180;4.512;2023-09-19T12:48:17;100775.06;;;18.25;69.48
82033;BME280;71595;52.180;4.512;2023-09-19T12:51:05;100763.47;;;18.30;68.96
82033;BME280;71595;52.180;4.512;2023-09-19T12:53:34;100773.03;;;18.26;69.33
82033;BME280;71595;52.180;4.512;2023-09-19T12:56:06;100761.88;;;18.26;68.64
82033;BME280;71595;52.180;4.512;2023-09-19T12:58:34;100754.69;;;18.25;67.72
82033;BME280;71595;52.180;4.512;2023-09-19T13:01:00;100755.50;;;18.25;68.44
82033;BME280;71595;52.180;4.512;2023-09-19T13:03:29;100762.25;;;18.21;68.63
82033;BME280;71595;52.180;4.512;2023-09-19T13:06:02;100773.03;;;18.19;69.51
82033;BME280;71595;52.180;4.512;2023-09-19T13:08:35;100770.66;;;18.24;68.96
82033;BME280;71595;52.180;4.512;2023-09-19T13:11:09;100758.69;;;18.24;68.33
82033;BME280;71595;52.180;4.512;2023-09-19T13:13:36;100767.06;;;18.24;68.48
82033;BME280;71595;52.180;4.512;2023-09-19T13:16:02;100761.03;;;18.14;70.01
82033;BME280;71595;52.180;4.512;2023-09-19T13:18:55;100776.19;;;18.13;71.34
82033;BME280;71595;52.180;4.512;2023-09-19T13:21:33;100770.16;;;18.04;71.33
82033;BME280;71595;52.180;4.512;2023-09-19T13:26:43;100770.59;;;18.13;70.76
82033;BME280;71595;52.180;4.512;2023-09-19T13:29:09;100766.63;;;18.11;70.96
82033;BME280;71595;52.180;4.512;2023-09-19T13:31:40;100762.63;;;18.08;70.55
82033;BME280;71595;52.180;4.512;2023-09-19T13:34:07;100757.81;;;18.02;70.86
82033;BME280;71595;52.180;4.512;2023-09-19T13:36:32;100762.56;;;18.01;70.66
82033;BME280;71595;52.180;4.512;2023-09-19T13:38:58;100782.50;;;17.96;71.52
82033;BME280;71595;52.180;4.512;2023-09-19T13:41:25;100792.41;;;17.86;73.19
82033;BME280;71595;52.180;4.512;2023-09-19T13:43:51;100807.50;;;17.74;75.17
82033;BME280;71595;52.180;4.512;2023-09-19T13:46:16;100815.81;;;17.64;76.57
82033;BME280;71595;52.180;4.512;2023-09-19T13:48:43;100786.25;;;17.55;76.75
82033;BME280;71595;52.180;4.512;2023-09-19T13:51:08;100789.75;;;17.45;77.29
82033;BME280;71595;52.180;4.512;2023-09-19T13:53:36;100768.25;;;17.46;76.80
82033;BME280;71595;52.180;4.512;2023-09-19T13:56:02;100771.00;;;17.42;77.23
82033;BME280;71595;52.180;4.512;2023-09-19T13:58:27;100772.22;;;17.48;76.27
82033;BME280;71595;52.180;4.512;2023-09-19T14:00:53;100763.84;;;17.45;75.68
82033;BME280;71595;52.180;4.512;2023-09-19T14:03:23;100779.81;;;17.51;75.89